Time;durP1;ratioP1;P1;durP2;ratioP2;P2;SDS_P1;SDS_P2;PMS_P1;PMS_P2;Temp;Humidity;BMP_temperature;BMP_pressure;BME280_temperature;BME280_humidity;BME280_pressure;Samples;Min_cycle;Max_cycle;Signal;HPM_P1;HPM_P2
2023/07/22 00:01:34;;;;;;;2.20;1.90;;;;;;;18.83;100.00;98691.56;109605;1251;60448;-69
2023/07/22 00:04:00;;;;;;;2.60;2.20;;;;;;;18.83;100.00;98691.48;109551;1251;72691;-69
2023/07/22 00:06:27;;;;;;;3.10;2.20;;;;;;;18.81;100.00;98688.51;109596;1251;67730;-69
2023/07/22 00:08:55;;;;;;;3.60;2.10;;;;;;;18.80;100.00;98683.09;109542;1251;71329;-70
2023/07/22 00:11:21;;;;;;;4.50;2.10;;;;;;;18.79;100.00;98680.39;109569;1251;60134;-70
2023/07/22 00:13:49;;;;;;;2.30;2.00;;;;;;;18.76;100.00;98683.47;109544;1251;58924;-70
2023/07/22 00:16:16;;;;;;;2.30;1.90;;;;;;;18.75;100.00;98680.91;109561;1251;73690;-69
2023/07/22 00:18:42;;;;;;;4.90;2.00;;;;;;;18.73;100.00;98681.14;109582;1251;67876;-69
2023/07/22 00:21:08;;;;;;;2.30;1.80;;;;;;;18.73;100.00;98684.96;109590;1251;58236;-69
2023/07/22 00:23:35;;;;;;;2.00;1.80;;;;;;;18.73;100.00;98685.47;109589;1251;61958;-69
2023/07/22 00:26:02;;;;;;;2.20;2.00;;;;;;;18.75;100.00;98684.04;109608;1251;59121;-69
2023/07/22 00:28:31;;;;;;;2.40;2.20;;;;;;;18.76;100.00;98686.76;109583;1253;74514;-69
2023/07/22 00:30:58;;;;;;;2.20;2.00;;;;;;;18.76;100.00;98687.71;109596;1251;67888;-69
2023/07/22 00:33:26;;;;;;;2.20;1.70;;;;;;;18.76;100.00;98682.49;109569;1251;73960;-69
2023/07/22 00:35:53;;;;;;;2.80;1.80;;;;;;;18.76;100.00;98678.67;109581;1251;58961;-69
2023/07/22 00:38:21;;;;;;;3.10;2.00;;;;;;;18.77;100.00;98679.55;109563;1251;59110;-69
2023/07/22 00:40:48;;;;;;;5.60;2.20;;;;;;;18.75;100.00;98677.02;109522;1251;74519;-69
2023/07/22 00:43:14;;;;;;;3.50;1.70;;;;;;;18.71;100.00;98663.70;109580;1251;67124;-69
2023/07/22 00:45:41;;;;;;;1.80;1.70;;;;;;;18.63;100.00;98651.86;109563;1251;72534;-69
2023/07/22 00:48:08;;;;;;;3.20;2.20;;;;;;;18.55;100.00;98644.71;109577;1251;61995;-69
2023/07/22 00:50:34;;;;;;;3.50;1.70;;;;;;;18.46;100.00;98643.30;109561;1251;58902;-69
2023/07/22 00:53:01;;;;;;;4.20;1.60;;;;;;;18.40;100.00;98650.44;109547;1251;59623;-69
2023/07/22 00:55:28;;;;;;;5.00;2.10;;;;;;;18.35;100.00;98653.77;109587;1251;67937;-69
2023/07/22 00:57:55;;;;;;;2.20;2.00;;;;;;;18.33;100.00;98648.42;109570;1251;71521;-69
2023/07/22 01:00:22;;;;;;;3.10;1.70;;;;;;;18.33;100.00;98649.70;109569;1251;60121;-69
2023/07/22 01:02:49;;;;;;;3.00;1.90;;;;;;;18.36;100.00;98652.50;109525;1251;60231;-69
2023/07/22 01:05:16;;;;;;;2.10;1.90;;;;;;;18.41;100.00;98653.15;109622;1251;74790;-69
2023/07/22 01:07:43;;;;;;;1.60;1.50;;;;;;;18.45;100.00;98648.97;109616;1251;67787;-69
2023/07/22 01:10:10;;;;;;;2.60;1.80;;;;;;;18.49;100.00;98642.81;109537;1251;71426;-69
2023/07/22 01:12:37;;;;;;;2.20;1.70;;;;;;;18.48;100.00;98636.24;109584;1251;60099;-69
2023/07/22 01:15:07;;;;;;;3.40;2.50;;;;;;;18.46;100.00;98642.42;109590;1252;60286;-69
2023/07/22 01:17:36;;;;;;;2.40;1.80;;;;;;;18.46;100.00;98642.43;109547;1251;74624;-69
2023/07/22 01:20:03;;;;;;;2.40;1.90;;;;;;;18.47;100.00;98643.72;109405;1251;67680;-69
2023/07/22 01:22:30;;;;;;;2.70;1.60;;;;;;;18.47;100.00;98643.80;109567;1251;71102;-69
2023/07/22 01:24:56;;;;;;;2.00;1.60;;;;;;;18.45;100.00;98638.96;109533;1252;61993;-69
2023/07/22 01:27:26;;;;;;;2.90;1.60;;;;;;;18.42;100.00;98641.27;109466;1251;60352;-69
2023/07/22 01:29:53;;;;;;;2.00;1.80;;;;;;;18.39;100.00;98640.09;109552;1253;73534;-70
2023/07/22 01:32:20;;;;;;;6.90;2.10;;;;;;;18.37;100.00;98641.92;109589;1251;65951;-70
2023/07/22 01:34:46;;;;;;;6.00;4.10;;;;;;;18.35;100.00;98642.42;109533;1251;72341;-70
2023/07/22 01:37:13;;;;;;;6.80;3.30;;;;;;;18.35;100.00;98644.57;109544;1252;58942;-70
2023/07/22 01:39:39;;;;;;;2.90;2.60;;;;;;;18.37;100.00;98645.90;109586;1251;58846;-70
2023/07/22 01:42:06;;;;;;;2.90;1.80;;;;;;;18.40;100.00;98647.36;109570;1251;58986;-70
2023/07/22 01:44:32;;;;;;;2.70;1.70;;;;;;;18.39;100.00;98639.23;109556;1254;59037;-70
2023/07/22 01:47:02;;;;;;;3.40;1.70;;;;;;;18.36;100.00;98636.93;109589;1251;72848;-70
2023/07/22 01:49:29;;;;;;;1.70;1.60;;;;;;;18.32;100.00;98636.11;109601;1251;58948;-70
2023/07/22 01:51:56;;;;;;;3.80;1.70;;;;;;;18.30;100.00;98640.42;109606;1251;60162;-70
2023/07/22 01:54:22;;;;;;;2.80;1.90;;;;;;;18.27;100.00;98646.63;109605;1251;74534;-69
2023/07/22 01:56:49;;;;;;;4.20;2.20;;;;;;;18.21;100.00;98647.33;109587;1251;67737;-70
2023/07/22 01:59:15;;;;;;;3.80;1.90;;;;;;;18.15;100.00;98653.82;109448;1251;73034;-70
2023/07/22 02:01:42;;;;;;;3.30;1.90;;;;;;;18.12;100.00;98651.38;109517;1251;61718;-73
2023/07/22 02:04:10;;;;;;;1.70;1.40;;;;;;;18.12;100.00;98651.81;109575;1251;59518;-69
2023/07/22 02:06:38;;;;;;;4.90;2.00;;;;;;;18.10;100.00;98655.17;109535;1251;74640;-70
2023/07/22 02:09:08;;;;;;;3.90;1.70;;;;;;;18.11;100.00;98653.30;109605;1253;67743;-71
2023/07/22 02:11:35;;;;;;;3.90;2.60;;;;;;;18.10;100.00;98654.46;109586;1251;72737;-70
2023/07/22 02:14:06;;;;;;;2.70;1.90;;;;;;;18.10;100.00;98656.17;109440;1251;60197;-70
2023/07/22 02:16:35;;;;;;;2.00;1.90;;;;;;;18.06;100.00;98660.42;109587;1251;60335;-70
2023/07/22 02:19:02;;;;;;;2.10;1.90;;;;;;;18.05;100.00;98665.16;109485;1251;74615;-69
2023/07/22 02:21:28;;;;;;;3.10;1.80;;;;;;;18.03;100.00;98665.88;109560;1252;66673;-69
2023/07/22 02:23:55;;;;;;;6.40;2.10;;;;;;;18.01;100.00;98670.31;109567;1251;71406;-69
2023/07/22 02:26:22;;;;;;;5.60;2.80;;;;;;;17.99;100.00;98671.92;109579;1254;60996;-69
2023/07/22 02:28:48;;;;;;;5.90;2.60;;;;;;;17.98;100.00;98675.54;109601;1251;59060;-69
2023/07/22 02:31:15;;;;;;;3.70;2.10;;;;;;;18.00;100.00;98679.02;109606;1251;74357;-71
2023/07/22 02:33:41;;;;;;;2.90;2.10;;;;;;;18.04;100.00;98680.92;109595;1253;67587;-70
2023/07/22 02:36:08;;;;;;;2.70;1.90;;;;;;;18.07;100.00;98684.87;109583;1251;72451;-70
2023/07/22 02:38:36;;;;;;;2.40;2.20;;;;;;;18.09;100.00;98691.71;109564;1254;61954;-70
2023/07/22 02:41:07;;;;;;;3.10;2.40;;;;;;;18.10;100.00;98690.73;109534;1253;60094;-70
2023/07/22 02:43:35;;;;;;;3.50;2.10;;;;;;;18.09;100.00;98689.16;109529;1252;73359;-70
2023/07/22 02:46:02;;;;;;;2.60;2.30;;;;;;;18.07;100.00;98694.87;109597;1253;66688;-71
2023/07/22 02:48:31;;;;;;;3.30;2.20;;;;;;;18.03;100.00;98693.61;109543;1251;72543;-70
2023/07/22 02:51:04;;;;;;;2.70;1.80;;;;;;;18.02;100.00;98693.84;109524;1254;59068;-71
2023/07/22 02:53:33;;;;;;;2.40;2.00;;;;;;;18.06;100.00;98702.13;109606;1251;58966;-70
2023/07/22 02:55:59;;;;;;;3.30;2.20;;;;;;;18.09;100.00;98701.13;109534;1253;74588;-70
2023/07/22 02:58:26;;;;;;;3.30;2.40;;;;;;;18.07;100.00;98700.95;109583;1253;66533;-70
2023/07/22 03:00:53;;;;;;;2.50;2.30;;;;;;;18.02;100.00;98699.05;109460;1251;71849;-70
2023/07/22 03:03:19;;;;;;;3.40;2.20;;;;;;;17.99;100.00;98691.79;109457;1253;60529;-70
2023/07/22 03:05:47;;;;;;;3.80;2.10;;;;;;;17.98;100.00;98692.05;109640;1253;58971;-69
2023/07/22 03:08:14;;;;;;;3.50;2.50;;;;;;;18.01;100.00;98696.21;109561;1251;74667;-69
2023/07/22 03:10:41;;;;;;;5.40;2.30;;;;;;;18.06;100.00;98705.79;109570;1256;66768;-69
2023/07/22 03:13:07;;;;;;;3.40;2.30;;;;;;;18.12;100.00;98705.81;109593;1254;72368;-70
2023/07/22 03:15:34;;;;;;;5.20;2.40;;;;;;;18.15;100.00;98709.37;109606;1254;59621;-69
2023/07/22 03:18:01;;;;;;;2.70;2.10;;;;;;;18.17;100.00;98716.52;109576;1254;58960;-69
2023/07/22 03:20:28;;;;;;;3.30;2.60;;;;;;;18.20;100.00;98718.74;109564;1251;73402;-69
2023/07/22 03:22:55;;;;;;;3.30;2.20;;;;;;;18.20;100.00;98720.56;109508;1251;66392;-70
2023/07/22 03:25:21;;;;;;;4.60;2.40;;;;;;;18.19;100.00;98716.89;109594;1253;58952;-70
2023/07/22 03:27:48;;;;;;;2.60;2.10;;;;;;;18.16;100.00;98713.36;109562;1256;58988;-71
2023/07/22 03:30:16;;;;;;;2.50;2.30;;;;;;;18.13;100.00;98708.52;109500;1253;59525;-69
2023/07/22 03:32:43;;;;;;;3.50;2.40;;;;;;;18.08;100.00;98703.09;109520;1251;74523;-70
2023/07/22 03:35:10;;;;;;;2.80;2.10;;;;;;;18.03;100.00;98698.95;109633;1252;66486;-69
2023/07/22 03:37:39;;;;;;;2.00;1.80;;;;;;;17.97;100.00;98690.30;109455;1252;72517;-70
2023/07/22 03:43:02;;;;;;;3.80;2.00;;;;;;;17.88;100.00;98690.59;109308;1254;58868;-69
2023/07/22 03:45:29;;;;;;;2.00;1.50;;;;;;;17.84;100.00;98691.16;109522;1251;73016;-70
2023/07/22 03:47:57;;;;;;;2.00;1.90;;;;;;;17.83;100.00;98691.52;109492;1251;59064;-70
2023/07/22 03:50:25;;;;;;;1.70;1.60;;;;;;;17.85;100.00;98689.61;109589;1252;72961;-69
2023/07/22 03:52:51;;;;;;;1.80;1.60;;;;;;;17.86;100.00;98696.58;109530;1254;59449;-69
2023/07/22 03:55:19;;;;;;;3.60;1.90;;;;;;;17.86;100.00;98701.91;109640;1252;59296;-69
2023/07/22 03:57:45;;;;;;;1.70;1.60;;;;;;;17.86;100.00;98704.59;109561;1254;73138;-68
2023/07/22 04:00:12;;;;;;;1.80;1.70;;;;;;;17.82;100.00;98707.52;109592;1254;66061;-70
2023/07/22 04:02:40;;;;;;;2.20;1.80;;;;;;;17.78;100.00;98709.25;109495;1253;71634;-70
2023/07/22 04:05:07;;;;;;;2.50;2.10;;;;;;;17.72;100.00;98710.84;109558;1251;61750;-69
2023/07/22 04:07:34;;;;;;;2.00;1.90;;;;;;;17.66;100.00;98711.39;109559;1251;58901;-70
2023/07/22 04:10:02;;;;;;;2.40;1.70;;;;;;;17.62;100.00;98714.21;109603;1252;73301;-70
2023/07/22 04:12:29;;;;;;;2.30;1.90;;;;;;;17.60;100.00;98714.60;109565;1256;66688;-69
2023/07/22 04:14:58;;;;;;;4.40;1.80;;;;;;;17.57;100.00;98718.02;109521;1254;72657;-69
2023/07/22 04:17:27;;;;;;;2.50;1.60;;;;;;;17.54;100.00;98720.41;109532;1251;61962;-69
2023/07/22 04:19:55;;;;;;;3.50;2.00;;;;;;;17.52;100.00;98713.36;109551;1251;59091;-70
2023/07/22 04:22:22;;;;;;;4.00;1.60;;;;;;;17.49;100.00;98704.23;109625;1254;74444;-69
2023/07/22 04:24:49;;;;;;;2.30;1.70;;;;;;;17.42;100.00;98705.05;109533;1251;68250;-69
2023/07/22 04:27:17;;;;;;;3.40;1.90;;;;;;;17.33;100.00;98704.34;109563;1254;72931;-70
2023/07/22 04:29:43;;;;;;;1.80;1.60;;;;;;;17.27;100.00;98708.50;109594;1252;61733;-69
2023/07/22 04:32:10;;;;;;;2.20;1.80;;;;;;;17.26;100.00;98711.90;109554;1253;59111;-70
2023/07/22 04:34:37;;;;;;;1.90;1.70;;;;;;;17.26;100.00;98711.13;109514;1254;74571;-69
2023/07/22 04:37:03;;;;;;;2.20;2.00;;;;;;;17.31;100.00;98713.16;109609;1251;67925;-69
2023/07/22 04:39:31;;;;;;;4.30;2.10;;;;;;;17.34;100.00;98712.10;109536;1256;72631;-69
2023/07/22 04:41:58;;;;;;;2.30;2.10;;;;;;;17.36;100.00;98711.36;109571;1254;61689;-70
2023/07/22 04:44:24;;;;;;;2.00;1.90;;;;;;;17.38;100.00;98715.91;109606;1254;60212;-70
2023/07/22 04:46:51;;;;;;;4.00;2.10;;;;;;;17.40;100.00;98719.72;109615;1252;73231;-70
2023/07/22 04:49:18;;;;;;;2.10;1.90;;;;;;;17.41;100.00;98721.10;109567;1251;66716;-70
2023/07/22 04:51:47;;;;;;;2.20;1.70;;;;;;;17.45;100.00;98719.52;109537;1253;72658;-70
2023/07/22 04:54:14;;;;;;;1.80;1.70;;;;;;;17.43;100.00;98720.50;109598;1252;61643;-70
2023/07/22 04:56:41;;;;;;;6.90;2.10;;;;;;;17.45;100.00;98723.81;109538;1253;60299;-69
2023/07/22 04:59:08;;;;;;;3.30;2.30;;;;;;;17.43;100.00;98721.08;109529;1251;73399;-70
2023/07/22 05:01:35;;;;;;;4.10;2.40;;;;;;;17.41;100.00;98724.00;109554;1254;68359;-69
2023/07/22 05:04:01;;;;;;;2.30;2.00;;;;;;;17.40;100.00;98726.66;109606;1254;59009;-69
2023/07/22 05:06:29;;;;;;;4.10;2.20;;;;;;;17.34;100.00;98721.46;109600;1251;60490;-69
2023/07/22 05:08:56;;;;;;;4.60;2.10;;;;;;;17.31;100.00;98721.86;109577;1254;58927;-69
2023/07/22 05:11:23;;;;;;;2.20;1.80;;;;;;;17.30;100.00;98720.34;109559;1252;74471;-70
2023/07/22 05:13:54;;;;;;;2.80;1.70;;;;;;;17.31;100.00;98710.91;109577;1251;66455;-69
2023/07/22 05:16:21;;;;;;;1.90;1.70;;;;;;;17.32;100.00;98708.02;109519;1254;72633;-69
2023/07/22 05:18:48;;;;;;;5.00;1.70;;;;;;;17.33;100.00;98706.11;109571;1252;61867;-70
2023/07/22 05:21:14;;;;;;;2.80;1.50;;;;;;;17.31;100.00;98708.00;109475;1251;60791;-69
2023/07/22 05:23:41;;;;;;;1.80;1.70;;;;;;;17.29;100.00;98703.39;109510;1254;74256;-69
2023/07/22 05:26:07;;;;;;;3.80;2.40;;;;;;;17.26;100.00;98698.36;109488;1252;66939;-70
2023/07/22 05:28:34;;;;;;;2.30;2.10;;;;;;;17.21;100.00;98696.95;109569;1251;71575;-70
2023/07/22 05:31:01;;;;;;;2.90;1.90;;;;;;;17.15;100.00;98696.95;109547;1254;60743;-70
2023/07/22 05:33:28;;;;;;;3.10;2.10;;;;;;;17.07;100.00;98700.80;109594;1252;60282;-69
2023/07/22 05:35:54;;;;;;;4.60;2.10;;;;;;;17.02;100.00;98700.84;109541;1253;74913;-70
2023/07/22 05:38:22;;;;;;;2.80;1.80;;;;;;;17.01;100.00;98702.89;109522;1251;66453;-70
2023/07/22 05:40:49;;;;;;;2.20;1.90;;;;;;;17.00;100.00;98705.02;109537;1253;72632;-69
2023/07/22 05:43:15;;;;;;;2.90;2.00;;;;;;;17.02;100.00;98703.66;109494;1253;58901;-70
2023/07/22 05:45:43;;;;;;;3.90;2.20;;;;;;;17.04;100.00;98698.30;109594;1252;59973;-69
2023/07/22 05:48:10;;;;;;;3.70;2.20;;;;;;;17.07;100.00;98695.27;109568;1253;58914;-70
2023/07/22 05:50:38;;;;;;;2.90;2.30;;;;;;;17.11;100.00;98693.85;109607;1251;66406;-71
2023/07/22 05:53:04;;;;;;;3.90;2.00;;;;;;;17.16;100.00;98694.50;109515;1251;71160;-71
2023/07/22 05:55:31;;;;;;;10.20;9.40;;;;;;;17.25;100.00;98700.11;109487;1251;60723;-71
2023/07/22 05:57:59;;;;;;;8.30;7.50;;;;;;;17.28;100.00;98703.32;109590;1252;60132;-71
2023/07/22 06:00:26;;;;;;;4.00;3.20;;;;;;;17.27;100.00;98698.46;109526;1252;74593;-73
2023/07/22 06:02:53;;;;;;;3.20;2.20;;;;;;;17.29;100.00;98696.08;109592;1252;67778;-74
2023/07/22 06:05:19;;;;;;;2.40;2.10;;;;;;;17.31;100.00;98689.89;109545;1254;71465;-72
2023/07/22 06:07:46;;;;;;;2.00;1.80;;;;;;;17.30;100.00;98687.88;109570;1252;60070;-72
2023/07/22 06:10:14;;;;;;;2.20;2.00;;;;;;;17.27;100.00;98681.09;109509;1254;60218;-72
2023/07/22 06:12:43;;;;;;;3.20;2.50;;;;;;;17.29;100.00;98682.31;109586;1252;73407;-72
2023/07/22 06:15:11;;;;;;;2.50;2.20;;;;;;;17.31;100.00;98677.02;109607;1254;67746;-72
2023/07/22 06:17:39;;;;;;;2.50;2.00;;;;;;;17.31;100.00;98676.06;109544;1254;72942;-75
2023/07/22 06:20:06;;;;;;;3.10;1.40;;;;;;;17.27;100.00;98678.65;109533;1252;60597;-78
2023/07/22 06:24:29;;;;;;;2.10;1.60;;;;;;;17.07;100.00;98674.63;103401;1292;600215;-72
2023/07/22 06:26:57;;;;;;;1.60;1.40;;;;;;;16.95;100.00;98680.48;104740;1272;61651;-72
2023/07/22 06:29:24;;;;;;;1.60;1.50;;;;;;;16.85;100.00;98674.91;104940;1269;59979;-75
2023/07/22 06:31:51;;;;;;;2.80;1.50;;;;;;;16.75;100.00;98673.20;104948;1267;72245;-75
2023/07/22 06:42:11;;;;;;;1.90;1.40;;;;;;;16.45;100.00;98670.08;102283;1292;601165;-69
2023/07/22 06:44:38;;;;;;;1.70;1.50;;;;;;;16.33;100.00;98671.97;104588;1267;61678;-71
2023/07/22 06:47:06;;;;;;;2.20;1.60;;;;;;;16.26;100.00;98667.65;104775;1267;59362;-67
2023/07/22 06:49:34;;;;;;;2.20;1.70;;;;;;;16.18;100.00;98667.75;104805;1265;72232;-67
2023/07/22 06:52:01;;;;;;;3.00;1.40;;;;;;;16.13;100.00;98665.99;104843;1265;68322;-70
2023/07/22 06:54:29;;;;;;;1.70;1.50;;;;;;;16.04;100.00;98669.29;104858;1262;71807;-74
2023/07/22 06:56:56;;;;;;;4.70;1.90;;;;;;;15.96;100.00;98665.08;104833;1259;62057;-73
2023/07/22 06:59:25;;;;;;;2.20;1.70;;;;;;;15.95;100.00;98657.88;109012;1257;60062;-60
2023/07/22 07:01:53;;;;;;;11.00;2.00;;;;;;;16.02;100.00;98661.49;108976;1257;72720;-60
2023/07/22 07:04:20;;;;;;;1.40;1.30;;;;;;;16.16;100.00;98661.08;108992;1257;67566;-74
2023/07/22 07:06:49;;;;;;;4.00;1.70;;;;;;;16.15;100.00;98657.51;108975;1256;71447;-71
2023/07/22 07:09:16;;;;;;;2.00;1.70;;;;;;;16.07;100.00;98667.88;109168;1256;60171;-70
2023/07/22 07:11:44;;;;;;;2.40;1.70;;;;;;;15.98;100.00;98663.48;109042;1257;60007;-70
2023/07/22 07:14:12;;;;;;;1.70;1.50;;;;;;;15.93;100.00;98661.93;109011;1257;73043;-70
2023/07/22 07:16:39;;;;;;;1.70;1.50;;;;;;;15.91;100.00;98663.69;109039;1258;66975;-70
2023/07/22 07:19:07;;;;;;;1.60;1.50;;;;;;;15.88;100.00;98667.58;109011;1257;71442;-72
2023/07/22 07:21:36;;;;;;;1.50;1.40;;;;;;;15.88;100.00;98669.98;109001;1257;60459;-68
2023/07/22 07:24:03;;;;;;;2.40;1.40;;;;;;;15.88;100.00;98668.70;109041;1257;58906;-70
2023/07/22 07:26:30;;;;;;;1.80;1.70;;;;;;;15.90;100.00;98671.66;109043;1257;73097;-71
2023/07/22 07:28:58;;;;;;;1.60;1.50;;;;;;;15.93;100.00;98669.08;109132;1257;66296;-70
2023/07/22 07:31:25;;;;;;;1.60;1.50;;;;;;;16.01;100.00;98668.98;109044;1257;71454;-69
2023/07/22 07:33:53;;;;;;;1.50;1.40;;;;;;;16.12;100.00;98666.98;109021;1259;60414;-69
2023/07/22 07:36:21;;;;;;;1.40;1.30;;;;;;;16.18;100.00;98668.02;108966;1258;59200;-69
2023/07/22 07:38:48;;;;;;;2.40;1.50;;;;;;;16.23;100.00;98673.46;109059;1257;71883;-68
2023/07/22 07:41:15;;;;;;;1.60;1.40;;;;;;;16.27;100.00;98673.04;109016;1258;66333;-69
2023/07/22 07:43:43;;;;;;;1.30;1.10;;;;;;;16.32;100.00;98674.05;109100;1257;72575;-71
2023/07/22 07:46:21;;;;;;;1.90;1.20;;;;;;;16.37;100.00;98680.52;109312;1253;60379;-70
2023/07/22 07:48:50;;;;;;;1.60;1.40;;;;;;;16.47;100.00;98680.66;109316;1253;58901;-73
2023/07/22 07:51:18;;;;;;;1.30;1.20;;;;;;;16.59;100.00;98682.19;109319;1253;72978;-71
2023/07/22 07:53:49;;;;;;;1.50;1.30;;;;;;;16.67;100.00;98682.89;109251;1253;67658;-68
2023/07/22 07:56:17;;;;;;;1.40;1.30;;;;;;;16.71;100.00;98683.52;109268;1253;71399;-71
2023/07/22 07:58:46;;;;;;;1.20;1.10;;;;;;;16.71;100.00;98685.13;109212;1253;60148;-72
2023/07/22 08:01:13;;;;;;;4.40;2.20;;;;;;;16.68;100.00;98686.52;109334;1253;61359;-75
2023/07/22 08:03:41;;;;;;;2.10;1.90;;;;;;;16.70;100.00;98687.56;109244;1253;73071;-72
2023/07/22 08:06:09;;;;;;;1.80;1.60;;;;;;;16.71;100.00;98687.55;109237;1253;67978;-69
2023/07/22 08:08:37;;;;;;;2.10;1.30;;;;;;;16.75;100.00;98689.65;109325;1257;71060;-71
2023/07/22 08:11:08;;;;;;;1.70;1.60;;;;;;;16.83;100.00;98686.67;109444;1253;61675;-71
2023/07/22 08:13:36;;;;;;;1.60;1.30;;;;;;;16.91;100.00;98683.90;109257;1253;60034;-72
2023/07/22 08:16:04;;;;;;;1.50;1.40;;;;;;;16.94;100.00;98688.27;109284;1253;73170;-72
2023/07/22 08:18:32;;;;;;;1.60;1.50;;;;;;;16.99;100.00;98691.73;109345;1254;67031;-73
2023/07/22 08:21:02;;;;;;;1.50;1.40;;;;;;;17.09;100.00;98698.59;109268;1254;72033;-72
2023/07/22 08:23:30;;;;;;;1.60;1.40;;;;;;;17.12;100.00;98692.43;109237;1253;60859;-72
2023/07/22 08:25:57;;;;;;;4.10;1.20;;;;;;;17.13;100.00;98694.51;109319;1253;60069;-71
2023/07/22 08:28:25;;;;;;;3.00;1.20;;;;;;;17.14;100.00;98693.92;109261;1253;73113;-72
2023/07/22 08:30:55;;;;;;;1.60;1.50;;;;;;;17.14;100.00;98694.15;109295;1253;66435;-72
2023/07/22 08:33:23;;;;;;;2.20;1.50;;;;;;;17.20;100.00;98700.54;109262;1254;71330;-71
2023/07/22 08:36:07;;;;;;;2.00;1.60;;;;;;;17.28;100.00;98701.27;109277;1254;61722;-72
2023/07/22 08:38:34;;;;;;;3.10;2.50;;;;;;;17.35;100.00;98701.06;109334;1254;59185;-72
2023/07/22 08:41:01;;;;;;;2.00;1.90;;;;;;;17.45;100.00;98703.75;109306;1253;72213;-74
2023/07/22 08:43:29;;;;;;;2.50;2.30;;;;;;;17.52;100.00;98701.86;109354;1254;66369;-71
2023/07/22 08:45:59;;;;;;;2.60;1.40;;;;;;;17.58;100.00;98703.30;109295;1253;72739;-71
2023/07/22 08:48:29;;;;;;;1.70;1.30;;;;;;;17.64;100.00;98703.08;109284;1254;61662;-71
2023/07/22 08:51:18;;;;;;;1.70;1.40;;;;;;;17.67;100.00;98709.38;109369;1253;60011;-72
2023/07/22 08:53:46;;;;;;;1.90;1.30;;;;;;;17.72;100.00;98715.18;109296;1253;72160;-70
2023/07/22 08:56:27;;;;;;;1.30;1.20;;;;;;;17.74;100.00;98715.09;109218;1253;66303;-73
2023/07/22 08:58:55;;;;;;;1.60;1.50;;;;;;;17.80;100.00;98720.98;109211;1254;72658;-71
2023/07/22 09:01:23;;;;;;;1.40;1.30;;;;;;;17.85;100.00;98721.63;109284;1253;61655;-71
2023/07/22 09:03:52;;;;;;;1.50;1.30;;;;;;;17.88;100.00;98716.70;109193;1253;60000;-74
2023/07/22 09:06:20;;;;;;;2.50;1.40;;;;;;;17.92;100.00;98713.91;109216;1253;74213;-70
2023/07/22 09:08:48;;;;;;;2.60;1.60;;;;;;;17.93;100.00;98712.55;109328;1253;67625;-72
2023/07/22 09:11:15;;;;;;;1.30;1.20;;;;;;;17.94;100.00;98711.98;109265;1253;71489;-71
2023/07/22 09:13:44;;;;;;;1.50;1.40;;;;;;;17.93;100.00;98714.39;109405;1254;60463;-73
2023/07/22 09:16:12;;;;;;;1.80;1.60;;;;;;;17.93;100.00;98713.35;109223;1253;58751;-71
2023/07/22 09:18:40;;;;;;;2.60;1.60;;;;;;;17.97;100.00;98716.14;109284;1253;71728;-74
2023/07/22 09:21:08;;;;;;;2.00;1.90;;;;;;;18.02;100.00;98714.70;109230;1254;66142;-73
2023/07/22 09:23:36;;;;;;;3.00;2.50;;;;;;;18.10;100.00;98711.64;109283;1253;72445;-74
2023/07/22 09:26:11;;;;;;;2.50;2.30;;;;;;;18.19;100.00;98703.27;109304;1258;61711;-77
2023/07/22 09:28:52;;;;;;;2.90;1.70;;;;;;;18.35;100.00;98697.02;109353;1253;58799;-76
2023/07/22 09:31:24;;;;;;;1.50;1.40;;;;;;;18.67;100.00;98693.80;109399;1253;73294;-75
2023/07/22 09:33:53;;;;;;;1.70;1.50;;;;;;;19.02;100.00;98694.86;109328;1253;68624;-75
2023/07/22 09:36:21;;;;;;;2.50;1.40;;;;;;;19.26;100.00;98691.61;109175;1254;72673;-74
2023/07/22 09:39:00;;;;;;;1.40;1.30;;;;;;;19.43;100.00;98691.05;109326;1253;61645;-73
2023/07/22 09:41:29;;;;;;;1.80;1.70;;;;;;;19.54;100.00;98692.52;109241;1253;60037;-76
2023/07/22 09:43:57;;;;;;;1.50;1.40;;;;;;;19.54;100.00;98690.64;109274;1258;73067;-72
2023/07/22 09:46:31;;;;;;;1.30;1.20;;;;;;;19.53;100.00;98700.16;109284;1253;66707;-72
2023/07/22 09:49:02;;;;;;;1.80;1.70;;;;;;;19.57;100.00;98704.60;109262;1253;72828;-73
2023/07/22 09:51:33;;;;;;;1.90;1.50;;;;;;;19.62;100.00;98706.92;109167;1255;61687;-75
2023/07/22 09:54:04;;;;;;;1.50;1.40;;;;;;;19.64;100.00;98712.53;109276;1253;60043;-75
2023/07/22 09:56:32;;;;;;;2.40;1.60;;;;;;;19.62;100.00;98713.48;109279;1253;72164;-72
2023/07/22 09:58:59;;;;;;;2.10;1.70;;;;;;;19.60;100.00;98721.65;109293;1253;66350;-72
2023/07/22 10:01:27;;;;;;;3.00;1.90;;;;;;;19.54;100.00;98724.03;109283;1254;72775;-73
2023/07/22 10:03:55;;;;;;;1.70;1.60;;;;;;;19.48;100.00;98730.45;109243;1258;61798;-72
2023/07/22 10:06:24;;;;;;;2.50;1.70;;;;;;;19.43;100.00;98725.69;109328;1253;59976;-72
2023/07/22 10:08:52;;;;;;;2.30;2.10;;;;;;;19.36;100.00;98715.30;109468;1253;73077;-70
2023/07/22 10:11:19;;;;;;;2.90;2.00;;;;;;;19.28;100.00;98702.00;109415;1253;67905;-72
2023/07/22 10:13:46;;;;;;;2.20;1.60;;;;;;;19.20;100.00;98696.27;109364;1253;72674;-73
2023/07/22 10:16:15;;;;;;;2.70;1.80;;;;;;;19.09;100.00;98700.05;109128;1253;61744;-75
2023/07/22 10:18:43;;;;;;;2.00;1.80;;;;;;;18.97;100.00;98707.17;109288;1253;58774;-71
2023/07/22 10:21:10;;;;;;;1.90;1.60;;;;;;;18.90;100.00;98706.52;109225;1252;70866;-71
2023/07/22 10:23:38;;;;;;;2.30;1.70;;;;;;;18.88;100.00;98709.17;109346;1253;65779;-75
2023/07/22 10:26:05;;;;;;;1.80;1.70;;;;;;;18.86;100.00;98711.45;109244;1253;71189;-73
2023/07/22 10:28:33;;;;;;;2.30;2.00;;;;;;;18.84;100.00;98705.77;109283;1254;60431;-71
2023/07/22 10:31:00;;;;;;;1.90;1.80;;;;;;;18.89;100.00;98704.07;109311;1254;58698;-74
2023/07/22 10:33:29;;;;;;;2.20;2.00;;;;;;;19.10;100.00;98709.23;109328;1253;72024;-72
2023/07/22 10:36:06;;;;;;;2.90;1.70;;;;;;;19.51;100.00;98713.56;109252;1253;67544;-75
2023/07/22 10:38:35;;;;;;;2.60;2.00;;;;;;;19.91;100.00;98708.40;109310;1253;72678;-72
2023/07/22 10:41:16;;;;;;;1.90;1.80;;;;;;;20.16;100.00;98706.10;109157;1260;61817;-73
2023/07/22 10:43:57;;;;;;;2.00;1.90;;;;;;;20.34;100.00;98702.84;109276;1255;60014;-73
2023/07/22 10:46:35;;;;;;;2.90;2.00;;;;;;;20.44;100.00;98702.96;109242;1253;73426;-74
2023/07/22 10:49:10;;;;;;;1.80;1.70;;;;;;;20.50;100.00;98702.92;109306;1253;67603;-73
2023/07/22 10:51:38;;;;;;;2.00;1.80;;;;;;;20.52;100.00;98698.36;109266;1254;72051;-72
2023/07/22 10:54:12;;;;;;;2.40;2.20;;;;;;;20.55;100.00;98697.31;109340;1253;58674;-75
2023/07/22 10:56:43;;;;;;;2.10;1.90;;;;;;;20.61;100.00;98699.27;109312;1254;60082;-75
2023/07/22 10:59:11;;;;;;;1.90;1.80;;;;;;;20.69;100.00;98692.40;109193;1255;71819;-74
2023/07/22 11:01:39;;;;;;;2.00;1.90;;;;;;;20.80;100.00;98697.05;109326;1253;66331;-71
2023/07/22 11:04:31;;;;;;;1.80;1.70;;;;;;;20.93;100.00;98690.20;109374;1253;72654;-74
2023/07/22 11:07:42;;;;;;;2.20;1.90;;;;;;;21.19;100.00;98693.71;109404;1253;60390;-75
2023/07/22 11:10:28;;;;;;;2.10;2.00;;;;;;;21.42;100.00;98688.71;109330;1253;60160;-72
2023/07/22 11:12:55;;;;;;;2.70;2.50;;;;;;;21.55;100.00;98688.27;109316;1255;72648;-71
2023/07/22 11:15:23;;;;;;;2.70;2.50;;;;;;;21.63;100.00;98684.05;109109;1253;66002;-71
2023/07/22 11:17:50;;;;;;;2.80;2.40;;;;;;;21.70;100.00;98684.59;109245;1253;71426;-74
2023/07/22 11:20:17;;;;;;;2.00;1.90;;;;;;;21.69;100.00;98686.86;109198;1254;61839;-74
2023/07/22 11:22:45;;;;;;;2.30;2.10;;;;;;;21.62;100.00;98690.00;109385;1253;59790;-70
2023/07/22 11:25:19;;;;;;;2.00;1.90;;;;;;;21.56;100.00;98693.86;109296;1254;72507;-71
2023/07/22 11:27:46;;;;;;;2.30;2.10;;;;;;;21.50;100.00;98696.61;109301;1254;67577;-75
2023/07/22 11:30:13;;;;;;;2.40;2.00;;;;;;;21.38;100.00;98697.29;109316;1254;72700;-72
2023/07/22 11:32:44;;;;;;;2.30;2.10;;;;;;;21.26;100.00;98696.16;109288;1258;60044;-73
2023/07/22 11:35:15;;;;;;;1.90;1.80;;;;;;;21.18;100.00;98691.49;109396;1256;59948;-73